createdAt,value
2018-12-22T00:00:29.790Z,26.20
2018-12-22T00:01:29.756Z,27.40
2018-12-22T00:02:29.731Z,27.80
2018-12-22T00:03:29.772Z,22.90
2018-12-22T00:04:29.970Z,24.30
2018-12-22T00:05:29.883Z,23.00
2018-12-22T00:06:29.903Z,32.90
2018-12-22T00:07:29.978Z,28.20
2018-12-22T00:08:29.558Z,29.90
2018-12-22T00:09:29.684Z,23.30
2018-12-22T00:10:29.503Z,25.80
2018-12-22T00:11:29.606Z,28.80
2018-12-22T00:12:29.446Z,27.80
2018-12-22T00:13:29.505Z,29.90
2018-12-22T00:14:29.381Z,22.30
2018-12-22T00:15:29.437Z,23.30
2018-12-22T00:16:29.346Z,20.00
2018-12-22T00:17:29.428Z,22.30
2018-12-22T00:18:29.301Z,19.70
2018-12-22T00:19:29.375Z,24.20
2018-12-22T00:20:29.220Z,23.40
2018-12-22T00:21:29.256Z,18.50
2018-12-22T00:22:29.165Z,27.20
2018-12-22T00:23:29.269Z,14.70
2018-12-22T00:24:29.107Z,23.90
2018-12-22T00:25:29.086Z,16.90
2018-12-22T00:26:29.052Z,15.60
2018-12-22T00:27:29.095Z,19.90
2018-12-22T00:28:29.011Z,16.30
2018-12-22T00:29:29.113Z,14.10
2018-12-22T00:30:28.948Z,20.20
2018-12-22T00:31:29.026Z,19.60
2018-12-22T00:32:28.887Z,18.10
2018-12-22T00:33:28.935Z,21.30
2018-12-22T00:34:28.832Z,15.90
2018-12-22T00:35:28.945Z,21.50
2018-12-22T00:36:28.771Z,14.20
2018-12-22T00:37:28.761Z,14.40
2018-12-22T00:38:28.716Z,21.80
2018-12-22T00:39:28.772Z,18.80
2018-12-22T00:40:28.663Z,20.60
2018-12-22T00:41:28.630Z,21.00
2018-12-22T00:42:28.601Z,17.40
2018-12-22T00:43:28.577Z,21.70
2018-12-22T00:44:28.542Z,17.90
2018-12-22T00:45:28.522Z,18.70
2018-12-22T00:46:28.616Z,23.20
2018-12-22T00:47:28.547Z,20.00
2018-12-22T00:48:28.534Z,22.10
2018-12-22T00:49:28.410Z,23.40
2018-12-22T00:50:28.536Z,20.20
2018-12-22T00:51:28.401Z,21.30
2018-12-22T00:52:28.468Z,21.70
2018-12-22T00:53:28.290Z,23.70
2018-12-22T00:54:28.264Z,24.80
2018-12-22T00:55:28.373Z,22.60
2018-12-22T00:56:28.208Z,23.30
2018-12-22T00:57:28.192Z,20.30
2018-12-22T00:58:30.875Z,25.90
2018-12-22T00:59:28.125Z,25.70
2018-12-22T01:00:28.201Z,23.10
2018-12-22T01:01:28.210Z,24.80
2018-12-22T01:02:28.216Z,25.80
2018-12-22T01:03:28.023Z,26.50
2018-12-22T01:04:28.125Z,29.50
2018-12-22T01:05:27.951Z,27.50
2018-12-22T01:06:28.051Z,28.50
2018-12-22T01:07:27.905Z,25.70
2018-12-22T01:08:28.060Z,28.50
2018-12-22T01:09:27.839Z,26.70
2018-12-22T01:10:27.965Z,25.90
2018-12-22T01:11:27.775Z,32.30
2018-12-22T01:12:27.875Z,33.00
2018-12-22T01:13:27.724Z,31.80
2018-12-22T01:14:27.790Z,35.40
2018-12-22T01:15:27.666Z,28.60
2018-12-22T01:16:27.803Z,33.80
2018-12-22T01:17:27.610Z,33.80
2018-12-22T01:18:27.709Z,38.20
2018-12-22T01:19:27.556Z,34.40
2018-12-22T01:20:27.624Z,33.90
2018-12-22T01:21:27.499Z,30.70
2018-12-22T01:22:27.637Z,29.80
2018-12-22T01:23:27.442Z,37.30
2018-12-22T01:24:27.550Z,41.40
2018-12-22T01:25:27.389Z,41.40
2018-12-22T01:26:27.464Z,41.60
2018-12-22T01:27:27.329Z,42.40
2018-12-22T01:28:27.478Z,41.40
2018-12-22T01:29:27.273Z,32.80
2018-12-22T01:30:27.389Z,39.90
2018-12-22T01:31:27.213Z,39.80
2018-12-22T01:32:28.142Z,42.40
2018-12-22T01:33:27.157Z,35.70
2018-12-22T01:34:27.317Z,37.60
2018-12-22T01:35:27.103Z,45.40
2018-12-22T01:36:27.221Z,39.50
2018-12-22T01:37:27.042Z,37.10
2018-12-22T01:38:27.079Z,39.90
2018-12-22T01:39:26.987Z,48.30
2018-12-22T01:40:27.094Z,40.90
2018-12-22T01:41:26.928Z,49.70
2018-12-22T01:42:27.009Z,39.90
2018-12-22T01:43:27.173Z,46.00
2018-12-22T01:44:27.035Z,41.70
2018-12-22T01:45:26.819Z,49.80
2018-12-22T01:46:26.942Z,43.60
2018-12-22T01:47:26.764Z,42.70
2018-12-22T01:48:33.661Z,47.00
2018-12-22T01:49:26.709Z,39.10
2018-12-22T01:50:26.715Z,42.70
2018-12-22T01:51:26.651Z,47.20
2018-12-22T01:52:26.728Z,53.80
2018-12-22T01:53:26.587Z,50.30
2018-12-22T01:54:26.638Z,36.90
2018-12-22T01:55:26.532Z,44.30
2018-12-22T01:56:26.549Z,42.00
2018-12-22T01:57:26.475Z,50.10
2018-12-22T01:58:27.485Z,42.20
2018-12-22T01:59:26.418Z,38.80
2018-12-22T02:00:26.478Z,45.10
2018-12-22T02:01:26.359Z,41.00
2018-12-22T02:02:26.385Z,47.30
2018-12-22T02:03:26.305Z,39.70
2018-12-22T02:04:26.293Z,45.90
2018-12-22T02:05:26.247Z,39.70
2018-12-22T02:06:26.305Z,43.20
2018-12-22T02:07:26.192Z,41.30
2018-12-22T02:08:26.217Z,41.90
2018-12-22T02:09:26.158Z,41.60
2018-12-22T02:10:26.128Z,44.10
2018-12-22T02:11:26.077Z,42.30
2018-12-22T02:12:26.140Z,42.30
2018-12-22T02:13:26.027Z,51.90
2018-12-22T02:14:26.055Z,45.50
2018-12-22T02:15:25.964Z,40.20
2018-12-22T02:16:25.962Z,44.00
2018-12-22T02:17:25.912Z,45.00
2018-12-22T02:18:25.974Z,38.50
2018-12-22T02:19:25.849Z,42.50
2018-12-22T02:20:25.882Z,41.20
2018-12-22T02:21:25.791Z,39.70
2018-12-22T02:22:25.795Z,43.90
2018-12-22T02:23:25.733Z,31.40
2018-12-22T02:24:25.807Z,46.30
2018-12-22T02:25:25.679Z,49.70
2018-12-22T02:26:25.726Z,35.00
2018-12-22T02:27:25.626Z,39.00
2018-12-22T02:28:25.617Z,37.30
2018-12-22T02:29:25.558Z,47.70
2018-12-22T02:30:25.652Z,37.50
2018-12-22T02:31:25.508Z,40.40
2018-12-22T02:32:25.564Z,50.20
2018-12-22T02:33:25.450Z,48.10
2018-12-22T02:34:25.417Z,36.20
2018-12-22T02:35:25.470Z,41.50
2018-12-22T02:36:25.366Z,36.00
2018-12-22T02:37:25.430Z,48.30
2018-12-22T02:38:25.312Z,38.90
2018-12-22T02:39:25.291Z,41.20
2018-12-22T02:40:25.257Z,35.20
2018-12-22T02:41:25.299Z,38.40
2018-12-22T02:42:25.196Z,46.70
2018-12-22T02:43:25.214Z,40.80
2018-12-22T02:44:25.130Z,45.70
2018-12-22T02:45:26.150Z,39.00
2018-12-22T02:46:25.079Z,39.20
2018-12-22T02:47:25.156Z,38.50
2018-12-22T02:48:25.024Z,40.60
2018-12-22T02:49:25.052Z,39.70
2018-12-22T02:50:25.094Z,36.30
2018-12-22T02:51:25.274Z,42.50
2018-12-22T02:52:25.215Z,39.40
2018-12-22T02:53:25.326Z,38.90
2018-12-22T02:54:25.245Z,43.30
2018-12-22T02:55:24.884Z,41.70
2018-12-22T02:56:24.798Z,42.00
2018-12-22T02:57:24.765Z,43.50
2018-12-22T02:58:24.799Z,50.40
2018-12-22T02:59:24.708Z,37.90
2018-12-22T03:00:24.711Z,42.80
2018-12-22T03:01:24.662Z,34.70
2018-12-22T03:02:24.624Z,36.80
2018-12-22T03:03:24.595Z,45.60
2018-12-22T03:04:24.571Z,32.70
2018-12-22T03:05:24.640Z,42.00
2018-12-22T03:06:24.518Z,36.90
2018-12-22T03:07:24.564Z,35.10
2018-12-22T03:08:24.538Z,31.20
2018-12-22T03:09:24.671Z,40.90
2018-12-22T03:10:24.673Z,39.90
2018-12-22T03:11:24.717Z,35.40
2018-12-22T03:12:24.350Z,39.00
2018-12-22T03:13:24.406Z,36.30
2018-12-22T03:14:24.284Z,37.50
2018-12-22T03:15:24.300Z,33.60
2018-12-22T03:16:24.235Z,38.40
2018-12-22T03:17:24.308Z,41.60
2018-12-22T03:18:24.166Z,31.20
2018-12-22T03:19:24.221Z,35.20
2018-12-22T03:20:24.113Z,32.70
2018-12-22T03:21:24.080Z,34.30
2018-12-22T03:22:24.050Z,38.90
2018-12-22T03:23:24.037Z,34.20
2018-12-22T03:24:23.995Z,32.60
2018-12-22T03:25:24.058Z,36.40
2018-12-22T03:26:23.940Z,31.40
2018-12-22T03:27:23.967Z,35.20
2018-12-22T03:28:23.889Z,34.70
2018-12-22T03:29:23.875Z,30.00
2018-12-22T03:30:23.839Z,32.10
2018-12-22T03:31:23.894Z,31.90
2018-12-22T03:32:23.771Z,28.10
2018-12-22T03:33:23.799Z,28.00
2018-12-22T03:34:23.716Z,27.20
2018-12-22T03:35:23.709Z,25.00
2018-12-22T03:36:23.649Z,25.20
2018-12-22T03:37:23.723Z,26.20
2018-12-22T03:38:23.599Z,27.40
2018-12-22T03:39:23.635Z,21.30
2018-12-22T03:40:23.551Z,26.80
2018-12-22T03:41:23.544Z,25.90
2018-12-22T03:42:23.486Z,23.60
2018-12-22T03:43:23.557Z,22.70
2018-12-22T03:44:23.427Z,27.40
2018-12-22T03:45:23.468Z,30.90
2018-12-22T03:46:23.369Z,27.80
2018-12-22T03:47:23.397Z,28.30
2018-12-22T03:48:23.325Z,22.60
2018-12-22T03:49:23.396Z,28.70
2018-12-22T03:50:23.262Z,30.50
2018-12-22T03:51:23.307Z,28.40
2018-12-22T03:52:23.202Z,24.60
2018-12-22T03:53:23.211Z,24.20
2018-12-22T03:54:23.146Z,29.90
2018-12-22T03:55:23.229Z,28.90
2018-12-22T03:56:23.079Z,33.80
2018-12-22T03:57:23.139Z,32.80
2018-12-22T03:58:23.028Z,37.50
2018-12-22T03:59:24.921Z,32.70
2018-12-22T04:00:23.102Z,26.60
2018-12-22T04:01:23.983Z,28.20
2018-12-22T04:02:22.957Z,29.00
2018-12-22T04:03:23.079Z,23.60
2018-12-22T04:04:23.078Z,37.60
2018-12-22T04:05:23.231Z,29.80
2018-12-22T04:06:23.103Z,27.90
2018-12-22T04:07:23.230Z,21.60
2018-12-22T04:08:22.766Z,36.60
2018-12-22T04:09:22.825Z,37.10
2018-12-22T04:10:22.702Z,32.00
2018-12-22T04:11:22.735Z,33.80
2018-12-22T04:12:22.674Z,33.90
2018-12-22T04:13:22.724Z,30.70
2018-12-22T04:14:22.630Z,30.10
2018-12-22T04:15:22.639Z,36.70
2018-12-22T04:16:22.556Z,35.70
2018-12-22T04:17:22.547Z,27.20
2018-12-22T04:18:22.517Z,34.80
2018-12-22T04:19:23.736Z,33.60
2018-12-22T04:20:23.939Z,31.80
2018-12-22T04:21:23.832Z,30.20
2018-12-22T04:22:24.001Z,31.30
2018-12-22T04:23:23.419Z,30.40
2018-12-22T04:24:23.223Z,33.30
2018-12-22T04:25:23.102Z,33.90
2018-12-22T04:26:22.805Z,33.30
2018-12-22T04:29:05.438Z,31.30
2018-12-22T04:29:57.819Z,30.20
2018-12-22T04:51:03.354Z,19.80
2018-12-22T04:53:17.859Z,18.00
2018-12-22T04:54:17.889Z,19.60
2018-12-22T04:56:11.418Z,17.40
2018-12-22T04:57:11.279Z,21.10
2018-12-22T04:58:11.239Z,16.40
2018-12-22T04:59:11.194Z,16.90
2018-12-22T05:00:11.283Z,19.60
2018-12-22T05:01:11.141Z,23.30
2018-12-22T05:02:12.218Z,20.60
2018-12-22T05:03:11.079Z,16.20
2018-12-22T05:04:11.129Z,16.50
2018-12-22T05:05:11.026Z,18.60
2018-12-22T05:06:11.101Z,13.60
2018-12-22T05:07:10.968Z,17.70
2018-12-22T05:08:11.579Z,14.20
2018-12-22T05:48:28.938Z,9.30
2018-12-22T05:49:28.884Z,7.70
2018-12-22T05:50:29.994Z,7.60
2018-12-22T05:51:28.830Z,10.50
2018-12-22T06:30:38.048Z,18.30
2018-12-22T06:31:38.407Z,15.10
2018-12-22T06:32:38.710Z,10.70
2018-12-22T06:33:36.287Z,12.20
2018-12-22T06:34:51.116Z,12.10
2018-12-22T06:35:36.296Z,13.50
2018-12-22T06:36:44.065Z,9.60
2018-12-22T06:37:36.147Z,13.30
2018-12-22T06:38:43.076Z,13.60
2018-12-22T06:39:36.192Z,12.90
2018-12-22T06:40:43.085Z,9.30
2018-12-22T06:41:36.081Z,11.00
2018-12-22T06:42:57.065Z,8.80
2018-12-22T06:43:35.942Z,11.20
2018-12-22T06:44:37.023Z,13.80
2018-12-22T06:45:35.884Z,14.00
2018-12-22T06:46:51.643Z,16.00
2018-12-22T06:47:35.851Z,12.80
2018-12-22T06:49:12.618Z,9.70
2018-12-22T06:49:35.809Z,12.30
2018-12-22T06:50:35.748Z,9.70
2018-12-22T06:51:43.621Z,12.80
2018-12-22T06:52:35.703Z,10.10
2018-12-22T06:53:36.769Z,8.60
2018-12-22T06:54:35.636Z,11.50
2018-12-22T06:55:58.732Z,8.40
2018-12-22T06:56:35.622Z,17.20
2018-12-22T06:57:50.752Z,9.70
2018-12-22T06:58:35.535Z,14.30
2018-12-22T06:59:44.108Z,6.90
2018-12-22T07:00:35.509Z,12.30
2018-12-22T07:02:12.052Z,9.40
2018-12-22T07:02:35.402Z,9.60
2018-12-22T07:04:05.168Z,10.90
2018-12-22T07:04:35.351Z,11.70
2018-12-22T07:05:35.313Z,11.40
2018-12-22T07:06:35.403Z,12.50
2018-12-22T07:07:35.255Z,11.10
2018-12-22T07:08:37.371Z,11.70
2018-12-22T07:09:35.184Z,9.30
2018-12-22T07:10:36.247Z,10.90
2018-12-22T07:11:35.126Z,9.50
2018-12-22T07:12:36.145Z,14.80
2018-12-22T07:13:35.109Z,12.90
2018-12-22T07:14:44.134Z,11.10
2018-12-22T07:15:35.017Z,9.30
2018-12-22T07:16:41.627Z,11.70
2018-12-22T07:17:34.960Z,10.10
2018-12-22T07:18:36.975Z,10.70
2018-12-22T07:19:34.925Z,12.00
2018-12-22T07:20:34.870Z,10.20
2018-12-22T07:21:34.856Z,9.50
2018-12-22T07:22:36.875Z,9.20
2018-12-22T07:23:34.768Z,9.60
2018-12-22T07:24:34.830Z,9.70
2018-12-22T07:25:34.726Z,9.60
2018-12-22T07:26:51.629Z,9.60
2018-12-22T07:27:34.674Z,10.20
2018-12-22T07:28:41.628Z,9.30
2018-12-22T07:29:34.600Z,11.80
2018-12-22T07:30:36.712Z,8.60
2018-12-22T07:31:34.561Z,13.00
2018-12-22T07:32:34.644Z,7.90
2018-12-22T07:33:34.499Z,11.50
2018-12-22T07:34:55.526Z,12.50
2018-12-22T07:35:34.460Z,12.80
2018-12-22T07:36:34.445Z,7.70
2018-12-22T07:37:34.389Z,10.50
2018-12-22T07:38:34.347Z,13.60
2018-12-22T07:39:34.328Z,10.60
2018-12-22T07:40:34.284Z,12.30
2018-12-22T07:41:34.262Z,12.40
2018-12-22T07:42:34.240Z,12.80
2018-12-22T07:43:34.247Z,7.70
2018-12-22T07:44:34.169Z,15.50
2018-12-22T07:45:34.139Z,10.80
2018-12-22T07:46:34.140Z,7.70
2018-12-22T07:47:34.094Z,7.40
2018-12-22T07:48:34.102Z,13.00
2018-12-22T07:49:34.029Z,10.60
2018-12-22T07:50:34.127Z,10.20
2018-12-22T07:51:33.997Z,11.00
2018-12-22T07:52:34.037Z,14.90
2018-12-22T07:53:33.934Z,12.20
2018-12-22T07:54:34.059Z,11.40
2018-12-22T07:55:33.859Z,12.80
2018-12-22T07:56:34.978Z,12.00
2018-12-22T07:57:33.804Z,11.30
2018-12-22T07:58:33.865Z,9.90
2018-12-22T07:59:33.741Z,8.80
2018-12-22T08:00:35.086Z,9.50
2018-12-22T08:01:33.734Z,13.00
2018-12-22T08:02:33.788Z,7.50
2018-12-22T08:03:33.644Z,7.70
2018-12-22T08:04:33.716Z,6.70
2018-12-22T08:05:38.569Z,6.10
2018-12-22T08:06:33.618Z,10.10
2018-12-22T08:07:33.522Z,5.50
2018-12-22T08:08:33.586Z,9.00
2018-12-22T08:09:33.451Z,7.20
2018-12-22T08:10:33.517Z,9.30
2018-12-22T08:11:33.444Z,7.30
2018-12-22T08:12:41.099Z,6.40
2018-12-22T08:13:33.337Z,8.40
2018-12-22T08:14:33.315Z,5.70
2018-12-22T08:15:33.287Z,7.00
2018-12-22T08:16:33.253Z,8.70
2018-12-22T08:17:33.346Z,9.10
2018-12-22T08:18:33.191Z,9.90
2018-12-22T08:19:33.155Z,9.40
2018-12-22T08:20:34.197Z,8.70
2018-12-22T08:21:33.114Z,7.90
2018-12-22T08:23:06.141Z,6.90
2018-12-22T08:24:08.222Z,12.90
2018-12-22T08:25:06.055Z,8.10
2018-12-22T08:26:06.017Z,5.90
2018-12-22T08:27:06.073Z,9.30
2018-12-22T08:28:05.956Z,7.60
2018-12-22T08:29:08.073Z,8.60
2018-12-22T08:30:05.930Z,10.50
2018-12-22T08:31:06.064Z,10.20
2018-12-22T08:32:05.890Z,9.20
2018-12-22T08:33:26.839Z,5.30
2018-12-22T08:34:05.872Z,5.40
2018-12-22T08:35:14.681Z,7.70
2018-12-22T08:36:05.779Z,12.50
2018-12-22T08:37:05.856Z,8.20
2018-12-22T08:38:05.756Z,7.30
2018-12-22T08:39:14.661Z,4.90
2018-12-22T08:40:05.667Z,5.60
2018-12-22T08:41:05.671Z,6.40
2018-12-22T08:42:05.598Z,5.30
2018-12-22T08:43:12.748Z,4.70
2018-12-22T08:44:05.545Z,5.00
2018-12-22T08:45:06.658Z,3.20
2018-12-22T08:46:05.647Z,7.10
2018-12-22T08:47:07.581Z,2.20
2018-12-22T08:48:05.413Z,4.80
2018-12-22T08:49:07.473Z,4.90
2018-12-22T08:50:09.317Z,2.30
2018-12-22T08:51:29.176Z,3.40
2018-12-22T08:52:05.328Z,4.40
2018-12-22T08:53:06.368Z,4.40
2018-12-22T08:54:05.287Z,2.70
2018-12-22T08:55:05.543Z,2.90
2018-12-22T08:56:05.189Z,1.90
2018-12-22T08:57:06.252Z,3.30
2018-12-22T08:58:05.252Z,2.50
2018-12-22T08:59:06.149Z,2.40
2018-12-22T09:00:05.083Z,2.60
2018-12-22T09:02:40.120Z,2.60
2018-12-22T09:03:40.185Z,4.00
2018-12-22T09:04:40.092Z,2.40
2018-12-22T09:05:40.122Z,1.50
2018-12-22T09:06:40.000Z,1.60
2018-12-22T09:07:47.764Z,2.50
2018-12-22T09:08:39.941Z,4.20
2018-12-22T09:09:41.965Z,2.00
2018-12-22T09:10:39.892Z,2.80
2018-12-22T09:11:39.943Z,1.90
2018-12-22T09:12:39.877Z,2.00
2018-12-22T09:13:56.873Z,2.20
2018-12-22T09:14:39.801Z,3.50
2018-12-22T09:17:48.437Z,3.60
2018-12-22T09:18:48.389Z,4.00
2018-12-22T09:19:57.144Z,2.70
2018-12-22T09:20:48.371Z,4.40
2018-12-22T09:22:48.428Z,2.30
2018-12-22T09:24:10.303Z,2.90
2018-12-22T09:24:48.234Z,3.20
2018-12-22T09:25:48.207Z,3.20
2018-12-22T09:26:48.256Z,4.00
2018-12-22T09:27:48.164Z,3.30
2018-12-22T09:28:49.308Z,4.30
2018-12-22T09:29:48.067Z,3.50
2018-12-22T09:30:50.102Z,3.20
2018-12-22T09:31:48.081Z,4.40
2018-12-22T09:32:55.073Z,4.40
2018-12-22T09:33:48.009Z,5.80
2018-12-22T09:34:49.993Z,5.30
2018-12-22T09:35:47.995Z,6.60
2018-12-22T09:37:12.419Z,5.70
2018-12-22T09:37:48.064Z,8.80
2018-12-22T09:38:47.829Z,7.20
2018-12-22T09:39:49.881Z,8.20
2018-12-22T09:40:47.790Z,6.70
2018-12-22T09:41:48.793Z,7.20
2018-12-22T09:42:56.469Z,8.60
2018-12-22T09:43:47.707Z,9.10
2018-12-22T09:44:47.748Z,7.00
2018-12-22T09:45:47.639Z,6.70
2018-12-22T09:46:48.672Z,7.50
2018-12-22T09:47:47.619Z,8.30
2018-12-22T09:48:48.593Z,6.00
2018-12-22T09:49:47.539Z,6.20
2018-12-22T09:51:03.446Z,5.00
2018-12-22T09:51:47.504Z,8.00
2018-12-22T09:52:56.419Z,6.50
2018-12-22T09:53:47.413Z,10.70
2018-12-22T10:01:48.013Z,7.30
2018-12-22T10:02:40.126Z,5.20
2018-12-22T10:03:18.322Z,5.50
2018-12-22T10:04:19.987Z,6.30
2018-12-22T10:05:18.019Z,5.70
2018-12-22T10:06:46.894Z,4.10
2018-12-22T10:07:17.972Z,6.80
2018-12-22T10:08:32.570Z,7.60
2018-12-22T10:09:17.912Z,6.50
2018-12-22T10:10:17.823Z,7.50
2018-12-22T10:11:17.799Z,7.40
2018-12-22T10:12:18.771Z,5.90
2018-12-22T10:13:17.817Z,6.30
2018-12-22T10:14:33.500Z,8.80
2018-12-22T10:15:17.693Z,6.70
2018-12-22T10:16:18.657Z,7.80
2018-12-22T10:17:17.638Z,8.20
2018-12-22T10:18:39.595Z,6.80
2018-12-22T10:19:17.611Z,9.20
2018-12-22T10:20:24.430Z,6.80
2018-12-22T10:21:17.553Z,8.20
2018-12-22T10:22:17.482Z,9.00
2018-12-22T10:23:17.458Z,8.40
2018-12-22T10:24:17.438Z,8.70
2018-12-22T10:25:17.424Z,6.50
2018-12-22T10:26:18.530Z,7.50
2018-12-22T10:27:17.476Z,7.50
2018-12-22T10:28:17.322Z,10.50
2018-12-22T10:29:17.331Z,8.80
2018-12-22T10:49:37.285Z,12.70
2018-12-22T10:50:21.227Z,13.30
2018-12-22T10:51:42.239Z,12.00
2018-12-22T10:52:21.177Z,9.40
2018-12-22T10:53:21.137Z,9.80
2018-12-22T10:54:21.105Z,9.00
2018-12-22T10:55:21.108Z,10.10
2018-12-22T10:56:45.102Z,9.90
2018-12-22T10:57:21.027Z,10.80
2018-12-22T10:58:49.737Z,9.90
2018-12-22T10:59:20.966Z,11.10
2018-12-22T11:00:21.944Z,9.60
2018-12-22T11:01:26.473Z,9.50
2018-12-22T11:02:29.737Z,11.50
2018-12-22T11:03:21.031Z,11.20
2018-12-22T11:04:21.863Z,12.90
2018-12-22T11:05:20.850Z,8.30
2018-12-22T11:06:56.760Z,13.30
2018-12-22T11:07:20.775Z,8.70
2018-12-22T11:08:20.734Z,10.70
2018-12-22T11:09:37.283Z,9.10
2018-12-22T11:10:20.679Z,9.20
2018-12-22T11:11:35.244Z,7.80
2018-12-22T11:12:20.617Z,8.70
2018-12-22T11:13:21.622Z,10.20
2018-12-22T11:14:20.561Z,15.00
2018-12-22T11:16:20.564Z,9.00
2018-12-22T11:17:20.453Z,10.70
2018-12-22T11:18:20.498Z,9.10
2018-12-22T11:19:22.455Z,7.40
2018-12-22T11:20:20.431Z,8.90
2018-12-22T11:21:20.411Z,10.10
2018-12-22T11:22:20.356Z,9.00
2018-12-22T11:23:36.491Z,10.50
2018-12-22T11:24:20.273Z,9.80
2018-12-22T11:25:29.258Z,8.00
2018-12-22T11:26:20.210Z,7.80
2018-12-22T11:27:37.025Z,6.40
2018-12-22T11:28:20.142Z,8.90
2018-12-22T11:29:34.818Z,10.90
2018-12-22T11:30:20.101Z,11.80
2018-12-22T11:31:49.775Z,12.50
2018-12-22T11:32:20.044Z,7.50
2018-12-22T11:33:27.739Z,10.10
2018-12-22T11:34:20.010Z,11.40
2018-12-22T11:35:28.785Z,8.00
2018-12-22T11:36:19.937Z,8.60
2018-12-22T11:37:20.883Z,9.30
2018-12-22T11:38:19.896Z,6.30
2018-12-22T11:39:20.842Z,9.40
2018-12-22T11:40:19.829Z,13.60
2018-12-22T11:41:20.840Z,9.60
2018-12-22T11:42:19.796Z,9.80
2018-12-22T11:43:19.739Z,8.80
2018-12-22T11:44:19.709Z,7.00
2018-12-22T11:45:26.260Z,8.70
2018-12-22T11:46:19.682Z,7.70
2018-12-22T11:47:26.272Z,10.00
2018-12-22T11:48:19.595Z,8.00
2018-12-22T11:49:19.550Z,9.20
2018-12-22T11:50:19.588Z,11.20
2018-12-22T11:51:21.586Z,5.20
2018-12-22T11:52:19.467Z,11.50
2018-12-22T11:53:43.219Z,10.70
2018-12-22T11:54:19.404Z,11.80
2018-12-22T11:55:19.381Z,14.30
2018-12-22T11:56:19.378Z,8.90
2018-12-22T11:59:38.190Z,7.60
2018-12-22T12:00:38.164Z,8.40
2018-12-22T12:01:46.022Z,8.10
2018-12-22T12:02:38.108Z,13.20
2018-12-22T12:03:44.936Z,10.00
2018-12-22T12:04:38.100Z,5.80
2018-12-22T12:05:44.945Z,11.20
2018-12-22T12:06:37.994Z,10.00
2018-12-22T12:07:37.937Z,6.00
2018-12-22T12:08:37.901Z,11.40
2018-12-22T12:09:44.468Z,4.60
2018-12-22T12:10:37.883Z,8.10
2018-12-22T12:12:37.783Z,5.80
2018-12-22T12:13:46.487Z,6.70
2018-12-22T12:14:37.826Z,7.20
2018-12-22T12:15:45.475Z,7.60
2018-12-22T12:16:37.651Z,8.50
2018-12-22T12:17:58.641Z,7.00
2018-12-22T12:18:37.610Z,5.70
2018-12-22T12:19:39.666Z,8.70
2018-12-22T12:20:37.551Z,5.80
2018-12-22T12:21:37.545Z,7.50
2018-12-22T12:22:37.480Z,4.80
2018-12-22T12:23:38.529Z,9.70
2018-12-22T12:24:37.479Z,6.20
2018-12-22T12:25:38.509Z,7.70
2018-12-22T12:26:37.460Z,6.90
2018-12-22T12:27:43.988Z,6.70
2018-12-22T12:28:37.378Z,9.40
2018-12-22T12:29:38.302Z,6.80
2018-12-22T12:30:37.260Z,7.30
2018-12-22T12:31:37.248Z,7.00
2018-12-22T12:32:37.240Z,4.80
2018-12-22T12:33:38.227Z,7.40
2018-12-22T12:34:37.160Z,7.30
2018-12-22T12:35:58.126Z,8.60
2018-12-22T12:36:37.183Z,9.40
2018-12-22T12:37:53.022Z,8.80
2018-12-22T12:38:37.052Z,10.00
2018-12-22T12:39:46.004Z,8.30
2018-12-22T12:40:37.017Z,11.60
2018-12-22T12:41:39.042Z,8.20
2018-12-22T12:42:36.920Z,5.30
2018-12-22T12:43:36.942Z,10.80
2018-12-22T12:44:36.925Z,7.30
2018-12-22T12:45:36.870Z,7.50
2018-12-22T12:46:36.810Z,8.30
2018-12-22T12:48:36.749Z,7.90
2018-12-22T12:49:44.500Z,8.70
2018-12-22T12:50:36.722Z,6.20
2018-12-22T12:51:36.666Z,8.10
2018-12-22T12:52:36.676Z,4.80
2018-12-22T12:53:57.646Z,10.60
2018-12-22T12:54:36.618Z,8.10
2018-12-22T12:55:36.534Z,8.40
2018-12-22T13:06:11.845Z,8.00
2018-12-22T13:07:02.002Z,10.00
2018-12-22T13:08:01.957Z,6.60
2018-12-22T13:09:03.041Z,8.50
2018-12-22T13:10:01.930Z,6.30
2018-12-22T13:11:02.889Z,11.00
2018-12-22T13:12:01.842Z,6.20
2018-12-22T13:13:01.817Z,8.50
2018-12-22T13:14:03.791Z,8.90
2018-12-22T13:15:01.752Z,5.00
2018-12-22T13:17:56.419Z,6.80
2018-12-22T13:18:33.884Z,10.30
2018-12-22T13:19:42.392Z,8.90
2018-12-22T13:20:33.775Z,7.30
2018-12-22T13:21:35.747Z,10.50
2018-12-22T13:22:33.732Z,10.30
2018-12-22T13:24:33.668Z,8.20
2018-12-22T13:25:33.646Z,8.70
2018-12-22T13:26:36.963Z,8.20
2018-12-22T13:27:33.812Z,10.40
2018-12-22T13:28:35.573Z,10.60
2018-12-22T13:29:33.507Z,10.10
2018-12-22T13:30:34.491Z,10.90
2018-12-22T13:31:33.450Z,12.40
2018-12-22T13:32:33.422Z,7.60
2018-12-22T13:33:33.446Z,12.10
2018-12-22T13:34:33.372Z,10.40
2018-12-22T13:35:33.345Z,12.10
2018-12-22T13:36:34.761Z,6.20
2018-12-22T13:37:33.279Z,12.60
2018-12-22T13:38:33.365Z,11.10
2018-12-22T13:39:33.243Z,10.80
2018-12-22T13:40:33.202Z,10.40
2018-12-22T13:41:33.247Z,7.10
2018-12-22T13:42:33.259Z,7.50
2018-12-22T13:43:33.346Z,11.30
2018-12-22T13:44:33.498Z,8.30
2018-12-22T13:45:33.402Z,9.90
2018-12-22T13:46:34.023Z,10.20
2018-12-22T13:47:33.043Z,11.40
2018-12-22T13:48:33.307Z,9.40
2018-12-22T13:49:33.425Z,12.00
2018-12-22T13:50:32.952Z,12.60
2018-12-22T13:51:32.883Z,11.60
2018-12-22T13:52:32.872Z,8.10
2018-12-22T13:53:32.833Z,10.00
2018-12-22T13:54:34.037Z,10.50
2018-12-22T13:55:32.885Z,9.90
2018-12-22T13:56:32.787Z,9.60
2018-12-22T13:57:32.703Z,12.30
2018-12-22T13:58:32.682Z,8.10
2018-12-22T13:59:32.643Z,8.40
2018-12-22T14:00:32.626Z,9.00
2018-12-22T14:01:32.593Z,14.80
2018-12-22T14:02:33.561Z,13.50
2018-12-22T14:03:32.543Z,11.50
2018-12-22T14:04:32.531Z,9.70
2018-12-22T14:05:32.479Z,15.00
2018-12-22T14:06:32.456Z,9.80
2018-12-22T14:07:32.436Z,10.10
2018-12-22T14:08:34.383Z,11.20
2018-12-22T14:09:32.366Z,9.90
2018-12-22T14:10:32.328Z,8.50
2018-12-22T14:11:32.284Z,11.20
2018-12-22T14:12:32.273Z,9.40
2018-12-22T14:13:32.241Z,8.10
2018-12-22T14:14:32.213Z,6.50
2018-12-22T14:15:32.195Z,9.60
2018-12-22T14:16:33.154Z,12.40
2018-12-22T14:17:32.135Z,6.30
2018-12-22T14:18:32.183Z,8.10
2018-12-22T14:19:32.086Z,7.70
2018-12-22T14:20:32.055Z,7.40
2018-12-22T14:21:32.014Z,9.00
2018-12-22T14:22:38.903Z,7.60
2018-12-22T14:23:32.167Z,7.40
2018-12-22T14:24:32.221Z,6.10
2018-12-22T14:25:32.208Z,6.80
2018-12-22T14:26:32.868Z,4.10
2018-12-22T14:27:31.841Z,10.10
2018-12-22T14:28:31.965Z,4.60
2018-12-22T14:29:31.768Z,5.10
2018-12-22T14:30:31.749Z,7.60
2018-12-22T14:31:31.706Z,8.60
2018-12-22T14:32:31.742Z,5.30
2018-12-22T14:33:31.661Z,11.20
2018-12-22T14:34:40.408Z,7.70
2018-12-22T14:35:31.604Z,9.40
2018-12-22T14:36:33.587Z,4.90
2018-12-22T14:37:31.539Z,5.70
2018-12-22T14:38:31.519Z,5.10
2018-12-22T14:39:31.485Z,7.20
2018-12-22T14:40:40.433Z,7.70
2018-12-22T14:41:31.432Z,6.30
2018-12-22T14:42:31.398Z,7.90
2018-12-22T14:43:31.366Z,5.30
2018-12-22T14:45:06.889Z,5.70
2018-12-22T14:45:31.315Z,7.00
2018-12-22T14:46:31.318Z,6.90
2018-12-22T14:51:06.061Z,8.80
2018-12-22T14:51:51.819Z,6.40
2018-12-22T14:53:59.959Z,9.60
2018-12-22T14:54:57.904Z,8.70
2018-12-22T14:55:57.916Z,9.10
2018-12-22T14:56:57.849Z,10.50
2018-12-22T14:57:57.817Z,10.20
2018-12-22T14:58:57.788Z,7.10
2018-12-22T14:59:57.769Z,11.40
2018-12-22T15:00:57.805Z,10.50
2018-12-22T15:01:58.704Z,9.40
2018-12-22T15:02:57.674Z,6.10
2018-12-22T15:04:04.233Z,5.30
2018-12-22T15:04:57.620Z,4.10
2018-12-22T15:05:57.589Z,5.50
2018-12-22T15:06:57.560Z,3.80
2018-12-22T15:07:57.541Z,2.20
2018-12-22T15:08:57.590Z,4.90
2018-12-22T15:10:14.247Z,2.80
2018-12-22T15:10:57.447Z,4.80
2018-12-22T15:11:57.413Z,2.60
2018-12-22T15:12:57.381Z,4.80
2018-12-22T15:14:13.282Z,4.20
2018-12-22T15:14:57.337Z,5.80
2018-12-22T15:15:57.295Z,2.50
2018-12-22T15:16:57.260Z,4.20
2018-12-22T15:18:57.217Z,5.10
2018-12-22T15:21:29.425Z,4.50
2018-12-22T15:22:46.324Z,7.00
2018-12-22T15:23:29.356Z,6.40
2018-12-22T15:33:07.954Z,7.70
2018-12-22T15:34:06.858Z,7.80
2018-12-22T15:35:44.374Z,11.00
2018-12-22T15:36:06.504Z,8.60
2018-12-22T15:37:06.464Z,7.50
2018-12-22T15:38:27.496Z,7.20
2018-12-22T15:39:06.412Z,6.10
2018-12-22T15:40:06.446Z,7.70
2018-12-22T15:41:07.436Z,9.20
2018-12-22T15:42:06.347Z,8.80
2018-12-22T15:43:12.879Z,6.40
2018-12-22T15:44:06.274Z,7.10
2018-12-22T15:45:07.370Z,7.80
2018-12-22T15:46:06.202Z,9.40
2018-12-22T15:47:06.261Z,8.30
2018-12-22T15:48:06.160Z,7.60
2018-12-22T15:49:06.171Z,10.30